KGNB

Granby-Grand County Airport

Granby, Colorado, USA
METAR KGNB 151545Z AUTO 00000KT 2 1/2SM BR BKN002 M17/M19 A3029 RMK AO2 VIS 3/4V5 T11751194
Observed Flight Rules
Dec-15 @ 15:45 UTC (21 minutes ago) Instrument Flight Rules
Visibility Clouds Conditions
2 1/2 miles
  • Broken at 200' AGL
  • Mist
Temperatures Readings
Current -18°C / -0°F
Dewpoint -19°C / -2°F
Humidity 92%
Altimeter 30.29" Hg
Pressure 1026 hPa
Elevation 2500
METAR KGNB 151545Z AUTO 00000KT 2 1/2SM BR BKN002 M17/M19 A3029 RMK AO2 VIS 3/4V5 T11751194
Observed Flight Rules
Dec-15 @ 15:45 UTC
(21 minutes ago)
LIFR
Clouds
  • Broken at 200' AGL
Conditions
  • Mist
Temperature Dewpoint
-18°C / -0°F -19°C / -2°F
Humidity Altimeter Pressure
92% 30.29" Hg 1026 hPa